Time;durP1;ratioP1;P1;durP2;ratioP2;P2;SDS_P1;SDS_P2;PMS_P1;PMS_P2;Temp;Humidity;BMP_temperature;BMP_pressure;BME280_temperature;BME280_humidity;BME280_pressure;Samples;Min_cycle;Max_cycle;Signal;HPM_P1;HPM_P2
2021/10/29 00:02:12;;;;;;;;;;;12.00;99.90;;;;;;6122214;23;19909;-79
2021/10/29 00:04:38;;;;;;;;;;;11.90;99.90;;;;;;6118442;23;19905;-75
2021/10/29 00:07:03;;;;;;;;;;;12.00;99.90;;;;;;6121239;23;19992;-75
2021/10/29 00:09:32;;;;;;;;;;;11.90;99.90;;;;;;6116544;23;20334;-76
2021/10/29 00:11:58;;;;;;;;;;;11.90;99.90;;;;;;6116708;23;20277;-75
2021/10/29 00:14:25;;;;;;;;;;;11.90;99.90;;;;;;6114616;23;20333;-76
2021/10/29 00:16:51;;;;;;;;;;;11.80;99.90;;;;;;6116119;23;19909;-76
2021/10/29 00:19:17;;;;;;;;;;;11.80;99.90;;;;;;6121030;23;19905;-76
2021/10/29 00:21:43;;;;;;;;;;;11.80;99.90;;;;;;6116624;23;19909;-78
2021/10/29 00:24:09;;;;;;;;;;;11.80;99.90;;;;;;6116240;23;19909;-78
2021/10/29 00:26:35;;;;;;;;;;;11.80;99.90;;;;;;6116472;23;19937;-75
2021/10/29 00:29:01;;;;;;;;;;;11.70;99.90;;;;;;6118598;23;19916;-75
2021/10/29 00:31:26;;;;;;;;;;;11.70;99.90;;;;;;6121467;23;19928;-76
2021/10/29 00:33:52;;;;;;;;;;;11.70;99.90;;;;;;6128352;23;19917;-76
2021/10/29 00:36:18;;;;;;;;;;;11.70;99.90;;;;;;6128408;23;20241;-76
2021/10/29 00:38:43;;;;;;;;;;;11.70;99.90;;;;;;6125986;23;19909;-76
2021/10/29 00:41:09;;;;;;;;;;;11.70;99.90;;;;;;6127115;23;19908;-75
2021/10/29 00:43:34;;;;;;;;;;;11.60;99.90;;;;;;6102006;23;19905;-76
2021/10/29 00:46:00;;;;;;;;;;;11.50;99.90;;;;;;6127195;23;19905;-76
2021/10/29 00:48:26;;;;;;;;;;;11.50;99.90;;;;;;6101267;23;20318;-76
2021/10/29 00:50:52;;;;;;;;;;;11.50;99.90;;;;;;6126575;23;20337;-76
2021/10/29 00:53:17;;;;;;;;;;;11.50;99.90;;;;;;6127201;23;19960;-76
2021/10/29 00:55:43;;;;;;;;;;;11.50;99.90;;;;;;6127143;23;19956;-76
2021/10/29 00:58:08;;;;;;;;;;;11.50;99.90;;;;;;6126272;23;19927;-76
2021/10/29 01:00:34;;;;;;;;;;;11.40;99.90;;;;;;6126966;23;19909;-76
2021/10/29 01:03:00;;;;;;;;;;;11.50;99.90;;;;;;6127326;23;19959;-77
2021/10/29 01:05:26;;;;;;;;;;;11.40;99.90;;;;;;6126259;23;19912;-77
2021/10/29 01:07:52;;;;;;;;;;;11.40;99.90;;;;;;6126952;23;20062;-79
2021/10/29 01:10:18;;;;;;;;;;;11.40;99.90;;;;;;6127294;23;19940;-76
2021/10/29 01:12:44;;;;;;;;;;;11.40;99.90;;;;;;6128081;23;19905;-76
2021/10/29 01:15:10;;;;;;;;;;;11.30;99.90;;;;;;6125438;23;19909;-76
2021/10/29 01:17:36;;;;;;;;;;;11.30;99.90;;;;;;6098516;23;20031;-76
2021/10/29 01:20:03;;;;;;;;;;;11.30;99.90;;;;;;6124905;23;19912;-75
2021/10/29 01:22:28;;;;;;;;;;;11.30;99.90;;;;;;6125288;23;19905;-76
2021/10/29 01:24:54;;;;;;;;;;;11.20;99.90;;;;;;6125548;23;19976;-76
2021/10/29 01:27:21;;;;;;;;;;;11.20;99.90;;;;;;6126419;23;19905;-75
2021/10/29 01:29:47;;;;;;;;;;;11.20;99.90;;;;;;6127429;23;19909;-76
2021/10/29 01:32:13;;;;;;;;;;;11.20;99.90;;;;;;6101826;23;20368;-75
2021/10/29 01:34:39;;;;;;;;;;;11.10;99.90;;;;;;6127686;23;20314;-76
2021/10/29 01:37:06;;;;;;;;;;;11.10;99.90;;;;;;6127709;23;19975;-76
2021/10/29 01:39:32;;;;;;;;;;;11.10;99.90;;;;;;6128689;23;19983;-80
2021/10/29 01:41:57;;;;;;;;;;;11.10;99.90;;;;;;6144743;23;19905;-75
2021/10/29 01:44:23;;;;;;;;;;;11.00;99.90;;;;;;6146800;23;19905;-75
2021/10/29 01:46:49;;;;;;;;;;;11.00;99.90;;;;;;6146766;23;19900;-75
2021/10/29 01:49:15;;;;;;;;;;;11.00;99.90;;;;;;6146767;23;19988;-75
2021/10/29 01:51:41;;;;;;;;;;;10.90;99.90;;;;;;6145616;23;19905;-75
2021/10/29 01:54:07;;;;;;;;;;;10.90;99.90;;;;;;6147347;23;19909;-76
2021/10/29 01:56:33;;;;;;;;;;;10.80;99.90;;;;;;6146216;23;19912;-76
2021/10/29 01:58:59;;;;;;;;;;;10.80;99.90;;;;;;6146318;23;19905;-75
2021/10/29 02:01:25;;;;;;;;;;;10.80;99.90;;;;;;6144702;23;19905;-75
2021/10/29 02:03:50;;;;;;;;;;;10.80;99.90;;;;;;6144975;23;20313;-75
2021/10/29 02:06:16;;;;;;;;;;;10.80;99.90;;;;;;6132721;23;19939;-75
2021/10/29 02:08:42;;;;;;;;;;;10.80;99.90;;;;;;6143946;23;19909;-75
2021/10/29 02:11:08;;;;;;;;;;;10.80;99.90;;;;;;6143110;23;19911;-76
2021/10/29 02:13:34;;;;;;;;;;;10.80;99.90;;;;;;6127043;23;19984;-76
2021/10/29 02:15:59;;;;;;;;;;;10.70;99.90;;;;;;6126823;23;19905;-76
2021/10/29 02:18:25;;;;;;;;;;;10.70;99.90;;;;;;6122355;23;20286;-76
2021/10/29 02:20:50;;;;;;;;;;;10.70;99.90;;;;;;6124599;23;19913;-75
2021/10/29 02:23:16;;;;;;;;;;;10.70;99.90;;;;;;6124118;23;19912;-76
2021/10/29 02:25:45;;;;;;;;;;;10.80;99.90;;;;;;6126130;23;19948;-76
2021/10/29 02:28:15;;;;;;;;;;;10.80;99.90;;;;;;6126069;23;19956;-76
2021/10/29 02:30:41;;;;;;;;;;;10.70;99.90;;;;;;6126233;23;19956;-76
2021/10/29 02:33:06;;;;;;;;;;;10.70;99.90;;;;;;6127183;23;20278;-76
2021/10/29 02:35:32;;;;;;;;;;;10.70;99.90;;;;;;6126954;23;19921;-76
2021/10/29 02:37:58;;;;;;;;;;;10.70;99.90;;;;;;6126669;23;19905;-75
2021/10/29 02:40:23;;;;;;;;;;;10.70;99.90;;;;;;6126989;23;19937;-76
2021/10/29 02:42:49;;;;;;;;;;;10.80;99.90;;;;;;6125944;23;20233;-76
2021/10/29 02:45:15;;;;;;;;;;;10.80;99.90;;;;;;6100937;23;19905;-76
2021/10/29 02:47:46;;;;;;;;;;;10.80;99.90;;;;;;6125075;23;19909;-76
2021/10/29 02:50:11;;;;;;;;;;;10.80;99.90;;;;;;6127105;23;20238;-76
2021/10/29 02:52:37;;;;;;;;;;;10.80;99.90;;;;;;6127343;23;20015;-76
2021/10/29 02:55:03;;;;;;;;;;;10.90;99.90;;;;;;6126608;23;19916;-76
2021/10/29 02:57:28;;;;;;;;;;;10.80;99.90;;;;;;6126808;23;19975;-77
2021/10/29 02:59:54;;;;;;;;;;;10.80;99.90;;;;;;6126611;23;20363;-75
2021/10/29 03:02:20;;;;;;;;;;;10.80;99.90;;;;;;6126669;23;19905;-76
2021/10/29 03:04:46;;;;;;;;;;;10.80;99.90;;;;;;6126889;23;19943;-76
2021/10/29 03:07:11;;;;;;;;;;;10.90;99.90;;;;;;6126386;23;20245;-76
2021/10/29 03:09:37;;;;;;;;;;;10.80;99.90;;;;;;6127273;23;19984;-75
2021/10/29 03:12:03;;;;;;;;;;;10.80;99.90;;;;;;6127374;23;20486;-76
2021/10/29 03:14:29;;;;;;;;;;;10.80;99.90;;;;;;6125367;23;19961;-76
2021/10/29 03:16:55;;;;;;;;;;;10.80;99.90;;;;;;6127106;23;19905;-78
2021/10/29 03:19:20;;;;;;;;;;;10.90;99.90;;;;;;6097150;23;19956;-76
2021/10/29 03:21:46;;;;;;;;;;;10.90;99.90;;;;;;6099375;23;20219;-76
2021/10/29 03:24:12;;;;;;;;;;;10.90;99.90;;;;;;6124279;23;20329;-76
2021/10/29 03:26:37;;;;;;;;;;;10.90;99.90;;;;;;6126132;23;19958;-75
2021/10/29 03:29:03;;;;;;;;;;;10.90;99.90;;;;;;6126254;23;20243;-76
2021/10/29 03:31:29;;;;;;;;;;;10.80;99.90;;;;;;6124857;23;19905;-76
2021/10/29 03:33:55;;;;;;;;;;;10.80;99.90;;;;;;6126677;23;19909;-76
2021/10/29 03:36:20;;;;;;;;;;;10.80;99.90;;;;;;6127431;23;20249;-76
2021/10/29 03:39:05;;;;;;;;;;;10.80;99.90;;;;;;6127270;23;19987;-76
2021/10/29 03:41:34;;;;;;;;;;;10.80;99.90;;;;;;6128223;23;19909;-76
2021/10/29 03:44:19;;;;;;;;;;;10.80;99.90;;;;;;6128042;23;20026;-77
2021/10/29 03:46:46;;;;;;;;;;;10.80;99.90;;;;;;6127195;23;19987;-76
2021/10/29 03:49:48;;;;;;;;;;;10.70;99.90;;;;;;6126922;23;19916;-76
2021/10/29 03:52:28;;;;;;;;;;;10.70;99.90;;;;;;6123967;23;19944;-75
2021/10/29 03:54:54;;;;;;;;;;;10.70;99.90;;;;;;6127555;23;19908;-76
2021/10/29 03:57:27;;;;;;;;;;;10.70;99.90;;;;;;6125161;23;19911;-76
2021/10/29 03:59:53;;;;;;;;;;;10.70;99.90;;;;;;6100335;23;19919;-76
2021/10/29 04:02:20;;;;;;;;;;;10.70;99.90;;;;;;6101215;23;19976;-76
2021/10/29 04:04:46;;;;;;;;;;;10.70;99.90;;;;;;6128577;23;19913;-76
2021/10/29 04:07:12;;;;;;;;;;;10.70;99.90;;;;;;6127955;23;19954;-77
2021/10/29 04:09:37;;;;;;;;;;;10.70;99.90;;;;;;6127163;23;19909;-75
2021/10/29 04:12:03;;;;;;;;;;;10.70;99.90;;;;;;6128231;23;20162;-76
2021/10/29 04:14:30;;;;;;;;;;;10.70;99.90;;;;;;6125866;23;19996;-77
2021/10/29 04:16:56;;;;;;;;;;;10.60;99.90;;;;;;6127379;23;19908;-76
2021/10/29 04:19:22;;;;;;;;;;;10.60;99.90;;;;;;6127190;23;19963;-77
2021/10/29 04:21:48;;;;;;;;;;;10.70;99.90;;;;;;6127881;23;19909;-76
2021/10/29 04:24:14;;;;;;;;;;;10.60;99.90;;;;;;6127052;23;19905;-76
2021/10/29 04:26:40;;;;;;;;;;;10.60;99.90;;;;;;6120589;23;19905;-76
2021/10/29 04:29:17;;;;;;;;;;;10.60;99.90;;;;;;6145459;23;19912;-75
2021/10/29 04:31:50;;;;;;;;;;;10.60;99.90;;;;;;6114705;23;20273;-76
2021/10/29 04:34:25;;;;;;;;;;;10.60;99.90;;;;;;6100807;23;19956;-76
2021/10/29 04:36:52;;;;;;;;;;;10.60;99.90;;;;;;6128051;23;20095;-75
2021/10/29 04:39:18;;;;;;;;;;;10.60;99.90;;;;;;6126720;23;20314;-76
2021/10/29 04:41:46;;;;;;;;;;;10.50;99.90;;;;;;6128788;23;19979;-76
2021/10/29 04:44:12;;;;;;;;;;;10.60;99.90;;;;;;6127023;23;19909;-76
2021/10/29 04:46:38;;;;;;;;;;;10.50;99.90;;;;;;6101758;23;19905;-75
2021/10/29 04:49:04;;;;;;;;;;;10.50;99.90;;;;;;6127627;23;19983;-76
2021/10/29 04:51:30;;;;;;;;;;;10.50;99.90;;;;;;6127620;23;19905;-76
2021/10/29 04:53:56;;;;;;;;;;;10.60;99.90;;;;;;6125838;23;19944;-75
2021/10/29 04:56:22;;;;;;;;;;;10.60;99.90;;;;;;6100255;23;20048;-76
2021/10/29 04:58:48;;;;;;;;;;;10.50;99.90;;;;;;6124403;23;20394;-76
2021/10/29 05:01:13;;;;;;;;;;;10.50;99.90;;;;;;6125997;23;19912;-76
2021/10/29 05:03:39;;;;;;;;;;;10.40;99.90;;;;;;6128263;23;19904;-76
2021/10/29 05:06:05;;;;;;;;;;;10.50;99.90;;;;;;6128067;23;19913;-77
2021/10/29 05:08:31;;;;;;;;;;;10.50;99.90;;;;;;6127097;23;20308;-76
2021/10/29 05:10:56;;;;;;;;;;;10.40;99.90;;;;;;6127689;23;19952;-76
2021/10/29 05:13:23;;;;;;;;;;;10.40;99.90;;;;;;6127171;23;20075;-78
2021/10/29 05:15:48;;;;;;;;;;;10.40;99.90;;;;;;6128633;23;19912;-76
2021/10/29 05:18:16;;;;;;;;;;;10.40;99.90;;;;;;6128374;23;19905;-76
2021/10/29 05:20:42;;;;;;;;;;;10.40;99.90;;;;;;6128153;23;19913;-76
2021/10/29 05:23:08;;;;;;;;;;;10.40;99.90;;;;;;6127767;23;19916;-76
2021/10/29 05:25:34;;;;;;;;;;;10.30;99.90;;;;;;6126793;23;19913;-79
2021/10/29 05:28:07;;;;;;;;;;;10.30;99.90;;;;;;6125936;23;19905;-75
2021/10/29 05:30:33;;;;;;;;;;;10.30;99.90;;;;;;6100942;23;19928;-75
2021/10/29 05:32:59;;;;;;;;;;;10.20;99.90;;;;;;6126570;23;19905;-76
2021/10/29 05:35:25;;;;;;;;;;;10.30;99.90;;;;;;6100636;23;20348;-76
2021/10/29 05:37:55;;;;;;;;;;;10.30;99.90;;;;;;6126969;23;19905;-77
2021/10/29 05:40:28;;;;;;;;;;;10.30;99.90;;;;;;6127507;23;19928;-76
2021/10/29 05:42:54;;;;;;;;;;;10.30;99.90;;;;;;6101523;23;19971;-75
2021/10/29 05:45:19;;;;;;;;;;;10.30;99.90;;;;;;6101325;23;19912;-76
2021/10/29 05:47:45;;;;;;;;;;;10.30;99.90;;;;;;6125026;23;20351;-76
2021/10/29 05:50:12;;;;;;;;;;;10.30;99.90;;;;;;6125738;23;19928;-76
2021/10/29 05:52:43;;;;;;;;;;;10.20;99.90;;;;;;6127402;23;19984;-76
2021/10/29 05:55:14;;;;;;;;;;;10.30;99.90;;;;;;6126551;23;19909;-75
2021/10/29 05:57:47;;;;;;;;;;;10.30;99.90;;;;;;6125140;23;19909;-75
2021/10/29 06:00:14;;;;;;;;;;;10.30;99.90;;;;;;6098772;23;19909;-76
2021/10/29 06:02:40;;;;;;;;;;;10.30;99.90;;;;;;6125628;23;19905;-76
2021/10/29 06:05:06;;;;;;;;;;;10.20;99.90;;;;;;6125590;23;19905;-76
2021/10/29 06:07:32;;;;;;;;;;;10.30;99.90;;;;;;6126418;23;19916;-76
2021/10/29 06:09:58;;;;;;;;;;;10.30;99.90;;;;;;6126812;23;19909;-75
2021/10/29 06:12:24;;;;;;;;;;;10.30;99.90;;;;;;6125959;23;19987;-75
2021/10/29 06:14:50;;;;;;;;;;;10.40;99.90;;;;;;6126323;23;19955;-76
2021/10/29 06:17:18;;;;;;;;;;;10.40;99.90;;;;;;6132214;23;19905;-75
2021/10/29 06:19:45;;;;;;;;;;;10.40;99.90;;;;;;6127545;23;19964;-76
2021/10/29 06:22:22;;;;;;;;;;;10.40;99.90;;;;;;6129791;23;19893;-76
2021/10/29 06:24:48;;;;;;;;;;;10.50;99.90;;;;;;6126440;23;19943;-76
2021/10/29 06:29:46;;;;;;;;;;;10.50;99.90;;;;;;6138931;23;19975;-76
2021/10/29 06:32:13;;;;;;;;;;;10.50;99.90;;;;;;6127649;23;19905;-76
2021/10/29 06:34:39;;;;;;;;;;;10.50;99.90;;;;;;6124001;23;19912;-76
2021/10/29 06:37:06;;;;;;;;;;;10.50;99.90;;;;;;6127156;23;19912;-75
2021/10/29 06:39:32;;;;;;;;;;;10.60;99.90;;;;;;6140289;23;19905;-75
2021/10/29 06:42:01;;;;;;;;;;;10.60;99.90;;;;;;6141059;23;20317;-76
2021/10/29 06:47:42;;;;;;;;;;;10.70;99.90;;;;;;6127676;23;19950;-76
2021/10/29 07:41:00;;;;;;;;;;;12.00;99.90;;;;;;6130522;23;19931;-74
2021/10/29 07:43:33;;;;;;;;;;;12.20;99.90;;;;;;6130175;23;20357;-75
2021/10/29 07:45:59;;;;;;;;;;;12.20;99.90;;;;;;6129853;23;19979;-74
2021/10/29 07:48:26;;;;;;;;;;;12.30;99.90;;;;;;6130200;23;19905;-74
2021/10/29 07:50:51;;;;;;;;;;;12.30;99.90;;;;;;6104465;23;19905;-74
2021/10/29 07:53:17;;;;;;;;;;;12.30;99.90;;;;;;6129834;23;19905;-73
2021/10/29 07:55:43;;;;;;;;;;;12.40;99.90;;;;;;6129225;23;19905;-75
2021/10/29 07:58:08;;;;;;;;;;;12.50;99.90;;;;;;6130141;23;19948;-77
2021/10/29 08:00:34;;;;;;;;;;;12.60;99.90;;;;;;6127222;23;20040;-76
2021/10/29 08:03:05;;;;;;;;;;;12.70;99.90;;;;;;6103948;23;19962;-76
2021/10/29 08:05:30;;;;;;;;;;;12.70;99.90;;;;;;6130206;23;19905;-76
2021/10/29 08:07:56;;;;;;;;;;;12.80;99.90;;;;;;6129713;23;20000;-76
2021/10/29 08:10:22;;;;;;;;;;;12.80;99.90;;;;;;6130401;23;19963;-78
2021/10/29 08:12:48;;;;;;;;;;;12.90;99.90;;;;;;6130111;23;20222;-76
2021/10/29 08:15:14;;;;;;;;;;;13.00;99.90;;;;;;6130561;23;19920;-76
2021/10/29 08:17:41;;;;;;;;;;;13.00;99.90;;;;;;6102690;23;19905;-76
2021/10/29 08:20:08;;;;;;;;;;;13.10;99.90;;;;;;6130198;23;19929;-76
2021/10/29 08:22:35;;;;;;;;;;;13.10;99.90;;;;;;6129982;23;19912;-77
2021/10/29 08:25:00;;;;;;;;;;;13.20;99.90;;;;;;6129836;23;19939;-77
2021/10/29 08:27:26;;;;;;;;;;;13.30;99.90;;;;;;6129498;23;20321;-76
2021/10/29 08:29:52;;;;;;;;;;;13.30;99.90;;;;;;6130225;23;19916;-78
2021/10/29 08:32:17;;;;;;;;;;;13.40;99.90;;;;;;6128843;23;19904;-76
2021/10/29 08:34:43;;;;;;;;;;;13.40;99.90;;;;;;6128998;23;19909;-76
2021/10/29 08:37:09;;;;;;;;;;;13.50;99.90;;;;;;6128045;23;19913;-75
2021/10/29 08:39:37;;;;;;;;;;;13.60;99.90;;;;;;6128625;23;19912;-76
2021/10/29 08:42:03;;;;;;;;;;;13.60;99.90;;;;;;6128129;23;19908;-76
2021/10/29 08:44:30;;;;;;;;;;;13.70;99.90;;;;;;6127456;23;19960;-76
2021/10/29 08:47:01;;;;;;;;;;;13.80;99.90;;;;;;6130098;23;19945;-76
2021/10/29 08:49:27;;;;;;;;;;;13.80;99.90;;;;;;6103305;23;19905;-76
2021/10/29 08:51:53;;;;;;;;;;;13.80;99.90;;;;;;6103942;23;20018;-76
2021/10/29 08:54:20;;;;;;;;;;;13.90;99.90;;;;;;6130286;23;19909;-77
2021/10/29 08:56:46;;;;;;;;;;;14.00;99.90;;;;;;6105724;23;19908;-77
2021/10/29 08:59:16;;;;;;;;;;;14.10;99.90;;;;;;6130246;23;20285;-77
2021/10/29 09:32:00;;;;;;;;;;;14.80;99.90;;;;;;6079982;23;19905;-77
2021/10/29 09:34:26;;;;;;;;;;;15.00;99.90;;;;;;6136028;23;19915;-77
2021/10/29 09:36:53;;;;;;;;;;;15.00;99.90;;;;;;6130784;23;19917;-76
2021/10/29 09:39:23;;;;;;;;;;;15.00;99.90;;;;;;6129399;23;19916;-77
2021/10/29 09:42:03;;;;;;;;;;;15.00;99.90;;;;;;6131323;23;19925;-76
2021/10/29 09:44:42;;;;;;;;;;;15.00;99.90;;;;;;6129470;23;19924;-77
2021/10/29 09:47:09;;;;;;;;;;;15.00;99.90;;;;;;6128051;23;20249;-78
2021/10/29 09:49:40;;;;;;;;;;;15.20;99.90;;;;;;6099254;23;19905;-76
2021/10/29 09:57:27;;;;;;;;;;;15.50;99.90;;;;;;6120285;23;19915;-76
2021/10/29 09:59:54;;;;;;;;;;;15.60;99.90;;;;;;6123292;23;19909;-76
2021/10/29 10:02:21;;;;;;;;;;;15.70;99.90;;;;;;6125827;23;19905;-76
2021/10/29 10:04:56;;;;;;;;;;;15.80;99.90;;;;;;6100235;23;19905;-77
2021/10/29 10:07:33;;;;;;;;;;;15.90;99.90;;;;;;6124675;23;19920;-75
2021/10/29 10:10:00;;;;;;;;;;;16.00;99.90;;;;;;6128286;23;20348;-76
2021/10/29 10:12:28;;;;;;;;;;;16.00;99.90;;;;;;6128232;23;19909;-75
2021/10/29 10:14:54;;;;;;;;;;;16.00;99.90;;;;;;6122564;23;19963;-76
2021/10/29 10:17:21;;;;;;;;;;;16.00;99.90;;;;;;6127366;23;19909;-77
2021/10/29 10:19:48;;;;;;;;;;;16.10;99.90;;;;;;6127292;23;20290;-77
2021/10/29 10:22:17;;;;;;;;;;;16.20;99.90;;;;;;6128925;23;19905;-77
2021/10/29 10:24:43;;;;;;;;;;;16.20;99.90;;;;;;6102677;23;19944;-76
2021/10/29 10:43:07;;;;;;;;;;;16.60;99.90;;;;;;6150650;23;19952;-76
2021/10/29 10:45:37;;;;;;;;;;;16.60;99.90;;;;;;6150758;23;19916;-76
2021/10/29 10:48:09;;;;;;;;;;;16.70;99.90;;;;;;6125255;23;19923;-75
2021/10/29 10:50:38;;;;;;;;;;;16.80;99.90;;;;;;6123897;23;19904;-77
2021/10/29 10:53:07;;;;;;;;;;;16.70;99.90;;;;;;6142016;23;19964;-75
2021/10/29 10:55:57;;;;;;;;;;;16.70;99.90;;;;;;6128163;23;19913;-76
2021/10/29 11:01:10;;;;;;;;;;;16.70;99.90;;;;;;6133835;23;19912;-76
2021/10/29 11:04:16;;;;;;;;;;;16.80;99.90;;;;;;6107970;23;19916;-77
2021/10/29 11:06:49;;;;;;;;;;;16.80;99.90;;;;;;6125007;23;19905;-76
2021/10/29 11:12:18;;;;;;;;;;;17.20;99.90;;;;;;6129405;23;19988;-76
2021/10/29 11:14:44;;;;;;;;;;;17.20;99.90;;;;;;6129960;23;19909;-76
2021/10/29 11:17:10;;;;;;;;;;;17.20;99.90;;;;;;6129833;23;19963;-76
2021/10/29 11:19:48;;;;;;;;;;;17.20;99.90;;;;;;6102512;23;19905;-76
2021/10/29 11:22:14;;;;;;;;;;;17.30;99.90;;;;;;6127836;23;19905;-76
2021/10/29 11:24:40;;;;;;;;;;;17.40;99.90;;;;;;6125006;23;19905;-76
2021/10/29 11:27:11;;;;;;;;;;;17.40;99.90;;;;;;6125990;23;19909;-76
2021/10/29 11:29:50;;;;;;;;;;;17.30;99.90;;;;;;6100909;23;19909;-77
2021/10/29 11:32:20;;;;;;;;;;;17.40;99.90;;;;;;6126597;23;19912;-77
2021/10/29 11:34:47;;;;;;;;;;;17.40;99.90;;;;;;6126704;23;20156;-77
2021/10/29 11:37:13;;;;;;;;;;;17.50;99.90;;;;;;6126250;23;19957;-77
2021/10/29 11:39:39;;;;;;;;;;;17.50;99.90;;;;;;6126303;23;19905;-77
2021/10/29 11:42:05;;;;;;;;;;;17.70;99.90;;;;;;6126174;23;19905;-76
2021/10/29 11:44:31;;;;;;;;;;;17.60;99.90;;;;;;6126447;23;19905;-75
2021/10/29 11:46:57;;;;;;;;;;;17.40;99.90;;;;;;6099090;23;19972;-76
2021/10/29 11:49:25;;;;;;;;;;;17.30;99.90;;;;;;6126153;23;19909;-77
2021/10/29 11:51:52;;;;;;;;;;;17.10;99.90;;;;;;6126411;23;19905;-76
2021/10/29 11:54:25;;;;;;;;;;;17.00;99.90;;;;;;6130568;23;19909;-80
2021/10/29 12:07:24;;;;;;;;;;;16.90;99.90;;;;;;6129921;23;19951;-80
2021/10/29 12:09:51;;;;;;;;;;;16.80;99.90;;;;;;6111019;23;19912;-79
2021/10/29 12:12:22;;;;;;;;;;;16.70;99.90;;;;;;6136791;23;19909;-80
2021/10/29 12:14:50;;;;;;;;;;;16.70;99.90;;;;;;6110406;23;20292;-80
2021/10/29 12:17:24;;;;;;;;;;;16.70;99.90;;;;;;6131737;23;19909;-80
2021/10/29 12:20:03;;;;;;;;;;;16.70;99.90;;;;;;6103820;23;19923;-78
2021/10/29 12:27:42;;;;;;;;;;;16.70;99.90;;;;;;6142946;23;19905;-77
2021/10/29 12:30:24;;;;;;;;;;;16.70;99.90;;;;;;6139768;23;19905;-79
2021/10/29 12:52:46;;;;;;;;;;;17.00;99.90;;;;;;6140919;23;20277;-77
2021/10/29 13:03:08;;;;;;;;;;;17.00;99.90;;;;;;6140608;23;19947;-78
2021/10/29 13:05:37;;;;;;;;;;;16.90;99.90;;;;;;6112511;23;19905;-78
2021/10/29 13:08:16;;;;;;;;;;;17.00;99.90;;;;;;6113136;23;20120;-78
2021/10/29 13:10:41;;;;;;;;;;;16.90;99.90;;;;;;6114510;23;20340;-77
2021/10/29 13:13:15;;;;;;;;;;;17.10;99.90;;;;;;6139769;23;19905;-78
2021/10/29 13:15:40;;;;;;;;;;;17.00;99.90;;;;;;6142515;23;19909;-79
2021/10/29 13:18:12;;;;;;;;;;;17.00;99.90;;;;;;6113399;23;19916;-79
2021/10/29 13:55:14;;;;;;;;;;;16.80;99.90;;;;;;6139649;23;19953;-78
2021/10/29 14:32:24;;;;;;;;;;;16.60;99.90;;;;;;6143151;23;19956;-78
2021/10/29 14:34:56;;;;;;;;;;;16.50;99.90;;;;;;6135739;23;19992;-78
2021/10/29 14:37:36;;;;;;;;;;;16.50;99.90;;;;;;6133785;23;19917;-77
2021/10/29 14:45:08;;;;;;;;;;;16.50;99.90;;;;;;6133154;23;19905;-77
2021/10/29 14:52:59;;;;;;;;;;;16.40;99.90;;;;;;6143810;23;19953;-78
2021/10/29 15:06:55;;;;;;;;;;;16.10;99.90;;;;;;6129401;23;19912;-77
2021/10/29 15:17:43;;;;;;;;;;;15.90;99.90;;;;;;6130539;23;19959;-77
2021/10/29 15:42:44;;;;;;;;;;;15.20;99.90;;;;;;6127284;23;20380;-77
2021/10/29 15:44:40;;;;;;;;;;;15.10;99.90;;;;;;6115850;23;20384;-78
2021/10/29 15:47:08;;;;;;;;;;;15.00;99.90;;;;;;6127446;23;19905;-77
2021/10/29 15:49:39;;;;;;;;;;;14.90;99.90;;;;;;6128157;23;20269;-77
2021/10/29 15:52:13;;;;;;;;;;;14.90;99.90;;;;;;6127494;23;19954;-77
2021/10/29 15:54:44;;;;;;;;;;;14.80;99.90;;;;;;6127988;23;19960;-76
2021/10/29 15:57:11;;;;;;;;;;;14.80;99.90;;;;;;6128413;23;19912;-77
2021/10/29 15:59:46;;;;;;;;;;;14.70;99.90;;;;;;6133375;23;19931;-77
2021/10/29 16:18:24;;;;;;;;;;;14.30;99.90;;;;;;6128841;23;20016;-76
2021/10/29 16:20:50;;;;;;;;;;;14.20;99.90;;;;;;6127662;23;19905;-77
2021/10/29 16:23:17;;;;;;;;;;;14.20;99.90;;;;;;6130446;23;19905;-77
2021/10/29 16:25:55;;;;;;;;;;;14.20;99.90;;;;;;6129952;23;19909;-77
2021/10/29 16:28:26;;;;;;;;;;;14.20;99.90;;;;;;6130428;23;19932;-77
2021/10/29 16:30:52;;;;;;;;;;;14.30;99.90;;;;;;6104410;23;19905;-76
2021/10/29 16:33:25;;;;;;;;;;;14.20;99.90;;;;;;6129539;23;19944;-76
2021/10/29 16:35:52;;;;;;;;;;;14.10;99.90;;;;;;6128947;23;19920;-76
2021/10/29 16:38:18;;;;;;;;;;;14.00;99.90;;;;;;6128036;23;19905;-77
2021/10/29 16:40:43;;;;;;;;;;;14.00;99.90;;;;;;6129302;23;19905;-76
2021/10/29 16:43:09;;;;;;;;;;;14.10;99.90;;;;;;6128936;23;20353;-76
2021/10/29 16:45:41;;;;;;;;;;;14.00;99.90;;;;;;6128343;23;19985;-76
2021/10/29 16:48:07;;;;;;;;;;;14.10;99.90;;;;;;6128977;23;19905;-77
2021/10/29 16:50:33;;;;;;;;;;;14.00;99.90;;;;;;6128980;23;19909;-77
2021/10/29 16:52:59;;;;;;;;;;;13.90;99.90;;;;;;6128589;23;19905;-77
2021/10/29 16:55:27;;;;;;;;;;;13.90;99.90;;;;;;6102828;23;19909;-77
2021/10/29 16:57:52;;;;;;;;;;;13.90;99.90;;;;;;6102459;23;19928;-77
2021/10/29 17:00:18;;;;;;;;;;;13.80;99.90;;;;;;6128244;23;20318;-77
2021/10/29 17:02:47;;;;;;;;;;;13.70;99.90;;;;;;6129386;23;20325;-77
2021/10/29 17:05:13;;;;;;;;;;;13.70;99.90;;;;;;6129283;23;20253;-76
2021/10/29 17:07:39;;;;;;;;;;;13.60;99.90;;;;;;6128552;23;19905;-76
2021/10/29 17:10:07;;;;;;;;;;;13.70;99.90;;;;;;6129024;23;19952;-77
2021/10/29 17:12:34;;;;;;;;;;;13.60;99.90;;;;;;6129159;23;19909;-77
2021/10/29 17:15:00;;;;;;;;;;;13.60;99.90;;;;;;6129492;23;19908;-76
2021/10/29 17:17:25;;;;;;;;;;;13.60;99.90;;;;;;6103648;23;19911;-77
2021/10/29 17:19:51;;;;;;;;;;;13.60;99.90;;;;;;6129601;23;20281;-77
2021/10/29 17:22:17;;;;;;;;;;;13.60;99.90;;;;;;6102819;23;19905;-76
2021/10/29 17:24:44;;;;;;;;;;;13.70;99.90;;;;;;6128979;23;19920;-76
2021/10/29 17:27:10;;;;;;;;;;;13.90;99.90;;;;;;6129211;23;20581;-76
2021/10/29 17:29:36;;;;;;;;;;;14.00;99.90;;;;;;6129504;23;19905;-76
2021/10/29 17:32:02;;;;;;;;;;;14.00;99.90;;;;;;6103729;23;19909;-77
2021/10/29 17:34:27;;;;;;;;;;;14.00;99.90;;;;;;6129390;23;19908;-77
2021/10/29 17:36:53;;;;;;;;;;;14.00;99.90;;;;;;6128445;23;20012;-76
2021/10/29 17:39:20;;;;;;;;;;;14.00;99.90;;;;;;6129278;23;19909;-76
2021/10/29 17:41:47;;;;;;;;;;;14.10;99.90;;;;;;6131465;23;20227;-76
2021/10/29 17:44:13;;;;;;;;;;;14.10;99.90;;;;;;6105517;23;19909;-76
2021/10/29 17:46:38;;;;;;;;;;;14.00;99.90;;;;;;6130728;23;19905;-76
2021/10/29 17:49:07;;;;;;;;;;;14.00;99.90;;;;;;6129373;23;19905;-77
2021/10/29 17:51:32;;;;;;;;;;;14.00;99.90;;;;;;6128713;23;19909;-76
2021/10/29 17:53:58;;;;;;;;;;;13.90;99.90;;;;;;6129184;23;20341;-76
2021/10/29 17:56:25;;;;;;;;;;;13.80;99.90;;;;;;6127635;23;19905;-77
2021/10/29 17:58:50;;;;;;;;;;;13.70;99.90;;;;;;6103212;23;20384;-76
2021/10/29 18:01:16;;;;;;;;;;;13.70;99.90;;;;;;6128809;23;19906;-76
2021/10/29 18:03:43;;;;;;;;;;;13.70;99.90;;;;;;6128717;23;20055;-76
2021/10/29 18:06:09;;;;;;;;;;;13.70;99.90;;;;;;6130018;23;20270;-77
2021/10/29 18:08:44;;;;;;;;;;;13.70;99.90;;;;;;6129582;23;19976;-76
2021/10/29 18:11:10;;;;;;;;;;;13.70;99.90;;;;;;6143694;23;19909;-76
2021/10/29 18:13:37;;;;;;;;;;;13.70;99.90;;;;;;6145130;23;19959;-76
2021/10/29 18:16:03;;;;;;;;;;;13.70;99.90;;;;;;6143115;23;19905;-76
2021/10/29 18:18:28;;;;;;;;;;;13.70;99.90;;;;;;6140813;23;19932;-77
2021/10/29 18:20:58;;;;;;;;;;;13.80;99.90;;;;;;6143111;23;19924;-75
2021/10/29 18:23:24;;;;;;;;;;;13.70;99.90;;;;;;6145143;23;19957;-76
2021/10/29 18:25:50;;;;;;;;;;;13.60;99.90;;;;;;6145089;23;19925;-76
2021/10/29 18:28:16;;;;;;;;;;;13.60;99.90;;;;;;6146766;23;19905;-75
2021/10/29 18:30:41;;;;;;;;;;;13.60;99.90;;;;;;6147842;23;19905;-75
2021/10/29 18:33:07;;;;;;;;;;;13.50;99.90;;;;;;6136845;23;19912;-76
2021/10/29 18:35:32;;;;;;;;;;;13.60;99.90;;;;;;6127501;23;19948;-76
2021/10/29 18:37:58;;;;;;;;;;;13.50;99.90;;;;;;6128765;23;20243;-76
2021/10/29 18:40:24;;;;;;;;;;;13.50;99.90;;;;;;6129339;23;19906;-77
2021/10/29 18:42:50;;;;;;;;;;;13.50;99.90;;;;;;6129214;23;20326;-76
2021/10/29 18:45:16;;;;;;;;;;;13.50;99.90;;;;;;6128377;23;19932;-76
2021/10/29 18:47:41;;;;;;;;;;;13.40;99.90;;;;;;6126696;23;20330;-75
2021/10/29 18:50:07;;;;;;;;;;;13.40;99.90;;;;;;6126161;23;19912;-77
2021/10/29 18:52:32;;;;;;;;;;;13.40;99.90;;;;;;6127199;23;19909;-76
2021/10/29 18:54:58;;;;;;;;;;;13.30;99.90;;;;;;6126524;23;19996;-76
2021/10/29 18:57:24;;;;;;;;;;;13.20;99.90;;;;;;6124060;23;19960;-76
2021/10/29 18:59:49;;;;;;;;;;;13.20;99.90;;;;;;6126248;23;19905;-76
2021/10/29 19:02:18;;;;;;;;;;;13.20;99.90;;;;;;6125119;23;19912;-76
2021/10/29 19:04:44;;;;;;;;;;;13.20;99.90;;;;;;6126492;23;19905;-76
2021/10/29 19:07:11;;;;;;;;;;;13.20;99.90;;;;;;6125454;23;19945;-77
2021/10/29 19:09:37;;;;;;;;;;;13.20;99.90;;;;;;6125924;23;19905;-76
2021/10/29 19:12:03;;;;;;;;;;;13.20;99.90;;;;;;6125902;23;19970;-77
2021/10/29 19:14:30;;;;;;;;;;;13.20;99.90;;;;;;6124950;23;19932;-76